sensor_id;sensor_type;location;lat;lon;timestamp;pressure;altitude;pressure_sealevel;temperature;humidity
59055;BME280;44845;51.444;7.460;2022-10-13T00:01:20;100164.59;;;10.29;80.06
59055;BME280;44845;51.444;7.460;2022-10-13T00:03:46;100168.97;;;10.31;80.17
59055;BME280;44845;51.444;7.460;2022-10-13T00:06:14;100169.84;;;10.29;80.11
59055;BME280;44845;51.444;7.460;2022-10-13T00:08:39;100173.31;;;10.31;80.03
59055;BME280;44845;51.444;7.460;2022-10-13T00:13:34;100172.47;;;10.32;80.12
59055;BME280;44845;51.444;7.460;2022-10-13T00:16:01;100172.44;;;10.33;80.17
59055;BME280;44845;51.444;7.460;2022-10-13T00:18:26;100163.69;;;10.33;80.30
59055;BME280;44845;51.444;7.460;2022-10-13T00:20:52;100161.06;;;10.33;80.17
59055;BME280;44845;51.444;7.460;2022-10-13T00:23:17;100165.44;;;10.35;80.12
59055;BME280;44845;51.444;7.460;2022-10-13T00:25:48;100161.94;;;10.35;80.07
59055;BME280;44845;51.444;7.460;2022-10-13T00:28:15;100166.31;;;10.36;80.17
59055;BME280;44845;51.444;7.460;2022-10-13T00:30:41;100161.97;;;10.36;79.96
59055;BME280;44845;51.444;7.460;2022-10-13T00:33:08;100168.09;;;10.37;80.08
59055;BME280;44845;51.444;7.460;2022-10-13T00:35:39;100158.44;;;10.38;79.99
59055;BME280;44845;51.444;7.460;2022-10-13T00:38:05;100158.44;;;10.38;80.01
59055;BME280;44845;51.444;7.460;2022-10-13T00:40:30;100147.09;;;10.34;79.85
59055;BME280;44845;51.444;7.460;2022-10-13T00:42:55;100152.34;;;10.34;80.08
59055;BME280;44845;51.444;7.460;2022-10-13T00:45:26;100157.59;;;10.37;80.10
59055;BME280;44845;51.444;7.460;2022-10-13T00:48:00;100147.97;;;10.38;80.04
59055;BME280;44845;51.444;7.460;2022-10-13T00:50:29;100144.50;;;10.37;79.93
59055;BME280;44845;51.444;7.460;2022-10-13T00:52:58;100144.47;;;10.40;79.92
59055;BME280;44845;51.444;7.460;2022-10-13T00:55:30;100151.44;;;10.43;79.90
59055;BME280;44845;51.444;7.460;2022-10-13T00:57:56;100148.84;;;10.41;80.00
59055;BME280;44845;51.444;7.460;2022-10-13T01:00:24;100149.69;;;10.40;79.87
59055;BME280;44845;51.444;7.460;2022-10-13T01:02:50;100151.47;;;10.41;79.99
59055;BME280;44845;51.444;7.460;2022-10-13T01:05:17;100134.84;;;10.42;79.99
59055;BME280;44845;51.444;7.460;2022-10-13T01:07:43;100139.19;;;10.45;79.62
59055;BME280;44845;51.444;7.460;2022-10-13T01:10:13;100141.84;;;10.43;79.63
59055;BME280;44845;51.444;7.460;2022-10-13T01:13:11;100135.72;;;10.46;79.70
59055;BME280;44845;51.444;7.460;2022-10-13T01:15:43;100133.09;;;10.44;79.74
59055;BME280;44845;51.444;7.460;2022-10-13T01:21:06;100126.09;;;10.46;79.68
59055;BME280;44845;51.444;7.460;2022-10-13T01:32:30;100102.53;;;10.42;79.71
59055;BME280;44845;51.444;7.460;2022-10-13T01:38:20;100095.53;;;10.52;79.62
59055;BME280;44845;51.444;7.460;2022-10-13T01:43:46;100091.97;;;10.50;79.46
59055;BME280;44845;51.444;7.460;2022-10-13T01:46:21;100089.38;;;10.53;79.54
59055;BME280;44845;51.444;7.460;2022-10-13T01:48:49;100089.38;;;10.53;79.37
59055;BME280;44845;51.444;7.460;2022-10-13T01:51:18;100087.66;;;10.52;79.29
59055;BME280;44845;51.444;7.460;2022-10-13T01:53:45;100082.41;;;10.52;79.50
59055;BME280;44845;51.444;7.460;2022-10-13T01:56:11;100081.53;;;10.53;79.43
59055;BME280;44845;51.444;7.460;2022-10-13T01:58:36;100083.25;;;10.55;79.26
59055;BME280;44845;51.444;7.460;2022-10-13T02:01:09;100079.75;;;10.55;79.32
59055;BME280;44845;51.444;7.460;2022-10-13T02:06:20;100073.66;;;10.59;79.48
59055;BME280;44845;51.444;7.460;2022-10-13T02:09:02;100069.25;;;10.59;79.60
59055;BME280;44845;51.444;7.460;2022-10-13T02:11:30;100071.00;;;10.61;79.44
59055;BME280;44845;51.444;7.460;2022-10-13T02:14:05;100071.88;;;10.61;79.55
59055;BME280;44845;51.444;7.460;2022-10-13T02:16:35;100071.91;;;10.58;79.78
59055;BME280;44845;51.444;7.460;2022-10-13T02:19:03;100070.13;;;10.60;79.82
59055;BME280;44845;51.444;7.460;2022-10-13T02:21:31;100073.66;;;10.59;79.62
59055;BME280;44845;51.444;7.460;2022-10-13T02:23:56;100070.13;;;10.63;79.50
59055;BME280;44845;51.444;7.460;2022-10-13T02:26:23;100073.63;;;10.62;79.70
59055;BME280;44845;51.444;7.460;2022-10-13T02:28:48;100072.75;;;10.63;79.90
59055;BME280;44845;51.444;7.460;2022-10-13T02:31:14;100066.59;;;10.64;79.80
59055;BME280;44845;51.444;7.460;2022-10-13T02:33:39;100070.13;;;10.60;80.02
59055;BME280;44845;51.444;7.460;2022-10-13T02:36:04;100064.88;;;10.63;79.81
59055;BME280;44845;51.444;7.460;2022-10-13T02:38:30;100066.59;;;10.67;79.71
59055;BME280;44845;51.444;7.460;2022-10-13T02:40:55;100073.59;;;10.65;79.86
59055;BME280;44845;51.444;7.460;2022-10-13T02:43:21;100073.59;;;10.68;79.70
59055;BME280;44845;51.444;7.460;2022-10-13T02:45:46;100067.47;;;10.71;79.89
59055;BME280;44845;51.444;7.460;2022-10-13T02:48:11;100069.22;;;10.74;79.90
59055;BME280;44845;51.444;7.460;2022-10-13T02:50:37;100068.31;;;10.75;79.81
59055;BME280;44845;51.444;7.460;2022-10-13T02:53:02;100069.19;;;10.75;79.80
59055;BME280;44845;51.444;7.460;2022-10-13T02:55:27;100067.44;;;10.77;79.66
59055;BME280;44845;51.444;7.460;2022-10-13T02:57:53;100070.06;;;10.79;79.48
59055;BME280;44845;51.444;7.460;2022-10-13T03:00:18;100076.16;;;10.79;79.31
59055;BME280;44845;51.444;7.460;2022-10-13T03:02:46;100066.56;;;10.78;79.36
59055;BME280;44845;51.444;7.460;2022-10-13T03:05:11;100077.03;;;10.80;79.28
59055;BME280;44845;51.444;7.460;2022-10-13T03:07:37;100069.19;;;10.78;79.49
59055;BME280;44845;51.444;7.460;2022-10-13T03:10:02;100068.28;;;10.81;79.36
59055;BME280;44845;51.444;7.460;2022-10-13T03:12:29;100071.78;;;10.80;79.42
59055;BME280;44845;51.444;7.460;2022-10-13T03:14:54;100074.41;;;10.80;79.40
59055;BME280;44845;51.444;7.460;2022-10-13T03:17:19;100071.78;;;10.80;79.47
59055;BME280;44845;51.444;7.460;2022-10-13T03:19:45;100063.91;;;10.81;79.11
59055;BME280;44845;51.444;7.460;2022-10-13T03:22:10;100063.06;;;10.78;79.34
59055;BME280;44845;51.444;7.460;2022-10-13T03:24:38;100069.19;;;10.78;79.46
59055;BME280;44845;51.444;7.460;2022-10-13T03:27:04;100059.53;;;10.82;79.56
59055;BME280;44845;51.444;7.460;2022-10-13T03:29:29;100063.91;;;10.81;79.47
59055;BME280;44845;51.444;7.460;2022-10-13T03:31:54;100057.75;;;10.84;79.27
59055;BME280;44845;51.444;7.460;2022-10-13T03:34:20;100057.75;;;10.87;79.30
59055;BME280;44845;51.444;7.460;2022-10-13T03:36:45;100049.91;;;10.86;79.26
59055;BME280;44845;51.444;7.460;2022-10-13T03:39:11;100049.03;;;10.85;79.12
59055;BME280;44845;51.444;7.460;2022-10-13T03:41:37;100049.88;;;10.89;78.99
59055;BME280;44845;51.444;7.460;2022-10-13T03:44:02;100049.88;;;10.87;79.05
59055;BME280;44845;51.444;7.460;2022-10-13T03:46:29;100051.63;;;10.87;79.14
59055;BME280;44845;51.444;7.460;2022-10-13T03:48:54;100055.13;;;10.84;79.07
59055;BME280;44845;51.444;7.460;2022-10-13T03:51:21;100057.75;;;10.87;79.22
59055;BME280;44845;51.444;7.460;2022-10-13T03:53:47;100055.13;;;10.87;79.29
59055;BME280;44845;51.444;7.460;2022-10-13T03:56:19;100056.03;;;10.86;79.24
59055;BME280;44845;51.444;7.460;2022-10-13T03:58:44;100056.00;;;10.89;79.25
59055;BME280;44845;51.444;7.460;2022-10-13T04:01:11;100047.25;;;10.87;79.40
59055;BME280;44845;51.444;7.460;2022-10-13T04:03:37;100040.25;;;10.89;79.45
59055;BME280;44845;51.444;7.460;2022-10-13T04:06:04;100036.75;;;10.90;79.22
59055;BME280;44845;51.444;7.460;2022-10-13T04:08:31;100035.00;;;10.89;79.26
59055;BME280;44845;51.444;7.460;2022-10-13T04:11:01;100032.38;;;10.91;79.32
59055;BME280;44845;51.444;7.460;2022-10-13T04:13:26;100027.13;;;10.92;79.16
59055;BME280;44845;51.444;7.460;2022-10-13T04:15:52;100022.72;;;10.98;79.26
59055;BME280;44845;51.444;7.460;2022-10-13T04:18:17;100026.19;;;10.97;79.21
59055;BME280;44845;51.444;7.460;2022-10-13T04:20:42;100019.22;;;10.96;79.09
59055;BME280;44845;51.444;7.460;2022-10-13T04:23:08;100015.75;;;10.90;79.39
59055;BME280;44845;51.444;7.460;2022-10-13T04:25:35;100024.47;;;10.96;79.00
59055;BME280;44845;51.444;7.460;2022-10-13T04:28:02;100012.22;;;10.95;79.23
59055;BME280;44845;51.444;7.460;2022-10-13T04:30:27;100017.47;;;10.95;79.18
59055;BME280;44845;51.444;7.460;2022-10-13T04:32:53;100015.72;;;10.98;79.15
59055;BME280;44845;51.444;7.460;2022-10-13T04:35:18;100006.09;;;10.94;79.15
59055;BME280;44845;51.444;7.460;2022-10-13T04:37:44;100002.59;;;10.97;79.34
59055;BME280;44845;51.444;7.460;2022-10-13T04:40:09;100002.59;;;10.97;79.15
59055;BME280;44845;51.444;7.460;2022-10-13T04:42:34;100004.34;;;10.98;78.97
59055;BME280;44845;51.444;7.460;2022-10-13T04:45:00;100007.81;;;11.00;79.04
59055;BME280;44845;51.444;7.460;2022-10-13T04:47:25;100010.44;;;11.03;78.77
59055;BME280;44845;51.444;7.460;2022-10-13T04:49:50;100007.81;;;11.03;78.90
59055;BME280;44845;51.444;7.460;2022-10-13T04:52:16;100006.94;;;11.01;78.99
59055;BME280;44845;51.444;7.460;2022-10-13T04:54:41;99996.47;;;10.98;78.76
59055;BME280;44845;51.444;7.460;2022-10-13T04:57:07;99997.34;;;10.97;78.82
59055;BME280;44845;51.444;7.460;2022-10-13T04:59:32;99990.38;;;10.96;78.99
59055;BME280;44845;51.444;7.460;2022-10-13T05:01:57;99989.50;;;10.94;79.08
59055;BME280;44845;51.444;7.460;2022-10-13T05:04:23;99991.22;;;10.98;78.97
59055;BME280;44845;51.444;7.460;2022-10-13T05:06:48;99985.97;;;11.01;78.94
59055;BME280;44845;51.444;7.460;2022-10-13T05:09:14;99995.56;;;11.02;78.71
59055;BME280;44845;51.444;7.460;2022-10-13T05:11:42;99991.16;;;11.04;78.58
59055;BME280;44845;51.444;7.460;2022-10-13T05:14:08;99992.91;;;11.05;78.61
59055;BME280;44845;51.444;7.460;2022-10-13T05:16:33;99991.16;;;11.06;78.71
59055;BME280;44845;51.444;7.460;2022-10-13T05:18:58;99978.91;;;11.06;78.60
59055;BME280;44845;51.444;7.460;2022-10-13T05:21:27;99982.41;;;11.05;78.33
59055;BME280;44845;51.444;7.460;2022-10-13T05:23:53;99988.56;;;11.06;78.63
59055;BME280;44845;51.444;7.460;2022-10-13T05:26:22;99984.16;;;11.06;78.52
59055;BME280;44845;51.444;7.460;2022-10-13T05:28:47;99987.66;;;11.08;78.51
59055;BME280;44845;51.444;7.460;2022-10-13T05:31:16;99995.50;;;11.10;78.62
59055;BME280;44845;51.444;7.460;2022-10-13T05:33:43;99992.00;;;11.11;78.65
59055;BME280;44845;51.444;7.460;2022-10-13T05:36:13;99985.88;;;11.10;78.64
59055;BME280;44845;51.444;7.460;2022-10-13T05:38:38;99984.13;;;11.09;78.57
59055;BME280;44845;51.444;7.460;2022-10-13T05:41:08;99981.50;;;11.11;78.48
59055;BME280;44845;51.444;7.460;2022-10-13T05:43:35;99985.88;;;11.10;78.19
59055;BME280;44845;51.444;7.460;2022-10-13T05:46:00;99986.72;;;11.14;78.19
59055;BME280;44845;51.444;7.460;2022-10-13T05:48:26;99975.34;;;11.13;78.23
59055;BME280;44845;51.444;7.460;2022-10-13T05:50:54;99971.81;;;11.16;78.43
59055;BME280;44845;51.444;7.460;2022-10-13T05:53:21;99984.09;;;11.15;78.13
59055;BME280;44845;51.444;7.460;2022-10-13T05:55:47;99980.63;;;11.12;78.13
59055;BME280;44845;51.444;7.460;2022-10-13T05:58:12;99980.59;;;11.13;78.21
59055;BME280;44845;51.444;7.460;2022-10-13T06:00:39;99983.19;;;11.17;78.02
59055;BME280;44845;51.444;7.460;2022-10-13T06:03:15;99970.06;;;11.20;78.06
59055;BME280;44845;51.444;7.460;2022-10-13T06:05:42;99977.00;;;11.24;79.46
59055;BME280;44845;51.444;7.460;2022-10-13T06:08:12;99971.75;;;11.27;77.75
59055;BME280;44845;51.444;7.460;2022-10-13T06:10:38;99973.44;;;11.31;77.15
59055;BME280;44845;51.444;7.460;2022-10-13T06:13:04;99965.56;;;11.33;77.24
59055;BME280;44845;51.444;7.460;2022-10-13T06:15:29;99962.94;;;11.34;77.06
59055;BME280;44845;51.444;7.460;2022-10-13T06:17:55;99964.69;;;11.32;77.23
59055;BME280;44845;51.444;7.460;2022-10-13T06:20:20;99957.69;;;11.31;76.87
59055;BME280;44845;51.444;7.460;2022-10-13T06:22:46;99952.44;;;11.31;76.92
59055;BME280;44845;51.444;7.460;2022-10-13T06:25:14;99957.66;;;11.34;77.15
59055;BME280;44845;51.444;7.460;2022-10-13T06:27:39;99959.44;;;11.32;76.39
59055;BME280;44845;51.444;7.460;2022-10-13T06:30:05;99945.41;;;11.33;76.68
59055;BME280;44845;51.444;7.460;2022-10-13T06:32:32;99952.41;;;11.34;76.86
59055;BME280;44845;51.444;7.460;2022-10-13T06:34:57;99952.41;;;11.34;76.62
59055;BME280;44845;51.444;7.460;2022-10-13T06:37:23;99956.81;;;11.35;76.59
59055;BME280;44845;51.444;7.460;2022-10-13T06:39:48;99953.25;;;11.40;76.54
59055;BME280;44845;51.444;7.460;2022-10-13T06:42:14;99951.50;;;11.40;76.69
59055;BME280;44845;51.444;7.460;2022-10-13T06:44:39;99954.13;;;11.38;76.97
59055;BME280;44845;51.444;7.460;2022-10-13T06:47:05;99957.66;;;11.37;77.08
59055;BME280;44845;51.444;7.460;2022-10-13T06:49:30;99953.25;;;11.40;76.78
59055;BME280;44845;51.444;7.460;2022-10-13T06:51:56;99947.16;;;11.37;76.62
59055;BME280;44845;51.444;7.460;2022-10-13T06:54:21;99945.38;;;11.40;76.74
59055;BME280;44845;51.444;7.460;2022-10-13T06:56:46;99946.19;;;11.45;76.67
59055;BME280;44845;51.444;7.460;2022-10-13T06:59:12;99948.78;;;11.48;76.67
59055;BME280;44845;51.444;7.460;2022-10-13T07:01:38;99948.75;;;11.51;76.52
59055;BME280;44845;51.444;7.460;2022-10-13T07:04:03;99938.25;;;11.53;76.53
59055;BME280;44845;51.444;7.460;2022-10-13T07:06:28;99943.47;;;11.57;76.66
59055;BME280;44845;51.444;7.460;2022-10-13T07:08:54;99940.81;;;11.56;76.29
59055;BME280;44845;51.444;7.460;2022-10-13T07:11:19;99941.69;;;11.59;76.61
59055;BME280;44845;51.444;7.460;2022-10-13T07:13:45;99946.03;;;11.62;76.75
59055;BME280;44845;51.444;7.460;2022-10-13T07:16:11;99952.13;;;11.63;76.60
59055;BME280;44845;51.444;7.460;2022-10-13T07:18:36;99948.63;;;11.64;76.53
59055;BME280;44845;51.444;7.460;2022-10-13T07:21:02;99954.75;;;11.64;76.83
59055;BME280;44845;51.444;7.460;2022-10-13T07:23:28;99957.34;;;11.66;76.80
59055;BME280;44845;51.444;7.460;2022-10-13T07:25:54;99953.91;;;11.60;76.54
59055;BME280;44845;51.444;7.460;2022-10-13T07:28:22;99946.94;;;11.59;76.79
59055;BME280;44845;51.444;7.460;2022-10-13T07:30:47;99948.66;;;11.60;76.68
59055;BME280;44845;51.444;7.460;2022-10-13T07:33:13;99956.47;;;11.65;76.71
59055;BME280;44845;51.444;7.460;2022-10-13T07:35:38;99945.06;;;11.68;76.83
59055;BME280;44845;51.444;7.460;2022-10-13T07:38:05;99950.31;;;11.71;76.62
59055;BME280;44845;51.444;7.460;2022-10-13T07:40:30;99951.16;;;11.73;76.43
59055;BME280;44845;51.444;7.460;2022-10-13T07:42:56;99947.59;;;11.77;76.62
59055;BME280;44845;51.444;7.460;2022-10-13T07:45:21;99953.66;;;11.82;76.60
59055;BME280;44845;51.444;7.460;2022-10-13T07:47:47;99941.34;;;11.88;76.58
59055;BME280;44845;51.444;7.460;2022-10-13T07:50:12;99954.44;;;11.94;76.66
59055;BME280;44845;51.444;7.460;2022-10-13T07:52:38;99953.50;;;11.98;76.62
59055;BME280;44845;51.444;7.460;2022-10-13T07:55:04;99948.16;;;12.04;76.40
59055;BME280;44845;51.444;7.460;2022-10-13T07:57:29;99953.38;;;12.08;76.31
59055;BME280;44845;51.444;7.460;2022-10-13T07:59:55;99954.22;;;12.13;76.18
59055;BME280;44845;51.444;7.460;2022-10-13T08:02:20;99955.00;;;12.20;76.48
59055;BME280;44845;51.444;7.460;2022-10-13T08:04:45;99956.75;;;12.19;76.44
59055;BME280;44845;51.444;7.460;2022-10-13T08:07:11;99954.94;;;12.24;76.77
59055;BME280;44845;51.444;7.460;2022-10-13T08:09:36;99963.72;;;12.25;76.64
59055;BME280;44845;51.444;7.460;2022-10-13T08:12:02;99959.25;;;12.32;75.94
59055;BME280;44845;51.444;7.460;2022-10-13T08:14:28;99951.28;;;12.36;75.76
59055;BME280;44845;51.444;7.460;2022-10-13T08:16:53;99954.78;;;12.37;75.85
59055;BME280;44845;51.444;7.460;2022-10-13T08:19:19;99945.13;;;12.39;75.56
59055;BME280;44845;51.444;7.460;2022-10-13T08:21:46;99945.91;;;12.46;75.63
59055;BME280;44845;51.444;7.460;2022-10-13T08:24:13;99949.34;;;12.49;75.60
59055;BME280;44845;51.444;7.460;2022-10-13T08:26:39;99944.06;;;12.53;76.01
59055;BME280;44845;51.444;7.460;2022-10-13T08:29:05;99951.03;;;12.54;75.83
59055;BME280;44845;51.444;7.460;2022-10-13T08:31:30;99949.28;;;12.56;75.24
59055;BME280;44845;51.444;7.460;2022-10-13T08:33:55;99949.22;;;12.59;75.43
59055;BME280;44845;51.444;7.460;2022-10-13T08:36:21;99950.94;;;12.61;75.79
59055;BME280;44845;51.444;7.460;2022-10-13T08:38:46;99945.59;;;12.66;75.70
59055;BME280;44845;51.444;7.460;2022-10-13T08:41:17;99954.41;;;12.65;75.95
59055;BME280;44845;51.444;7.460;2022-10-13T08:43:52;99949.09;;;12.68;75.53
59055;BME280;44845;51.444;7.460;2022-10-13T08:46:25;99955.22;;;12.70;76.03
59055;BME280;44845;51.444;7.460;2022-10-13T08:48:52;99953.44;;;12.72;76.27
59055;BME280;44845;51.444;7.460;2022-10-13T08:51:17;99956.91;;;12.75;76.07
59055;BME280;44845;51.444;7.460;2022-10-13T08:53:45;99945.47;;;12.77;75.80
59055;BME280;44845;51.444;7.460;2022-10-13T08:56:24;99945.38;;;12.82;76.11
59055;BME280;44845;51.444;7.460;2022-10-13T08:58:51;99954.97;;;12.86;75.90
59055;BME280;44845;51.444;7.460;2022-10-13T09:01:28;99947.88;;;12.91;75.93
59055;BME280;44845;51.444;7.460;2022-10-13T09:06:46;99941.53;;;13.05;75.71
59055;BME280;44845;51.444;7.460;2022-10-13T09:09:16;99948.47;;;13.09;75.22
59055;BME280;44845;51.444;7.460;2022-10-13T09:11:44;99941.41;;;13.11;75.04
59055;BME280;44845;51.444;7.460;2022-10-13T09:14:18;99952.69;;;13.20;75.29
59055;BME280;44845;51.444;7.460;2022-10-13T09:16:46;99941.25;;;13.21;74.88
59055;BME280;44845;51.444;7.460;2022-10-13T09:21:48;99937.56;;;13.31;74.45
59055;BME280;44845;51.444;7.460;2022-10-13T09:24:16;99936.59;;;13.35;74.36
59055;BME280;44845;51.444;7.460;2022-10-13T09:26:43;99936.53;;;13.38;74.58
59055;BME280;44845;51.444;7.460;2022-10-13T09:29:20;99933.91;;;13.38;74.46
59055;BME280;44845;51.444;7.460;2022-10-13T09:31:48;99929.44;;;13.44;73.54
59055;BME280;44845;51.444;7.460;2022-10-13T09:36:56;99931.00;;;13.52;74.09
59055;BME280;44845;51.444;7.460;2022-10-13T09:39:22;99923.06;;;13.56;74.26
59055;BME280;44845;51.444;7.460;2022-10-13T09:41:47;99917.78;;;13.57;73.56
59055;BME280;44845;51.444;7.460;2022-10-13T09:44:17;99921.19;;;13.62;73.62
59055;BME280;44845;51.444;7.460;2022-10-13T09:46:47;99923.75;;;13.67;73.38
59055;BME280;44845;51.444;7.460;2022-10-13T09:52:03;99926.19;;;13.77;72.92
59055;BME280;44845;51.444;7.460;2022-10-13T09:57:41;99921.94;;;13.71;73.51
59055;BME280;44845;51.444;7.460;2022-10-13T10:03:00;99927.16;;;13.72;72.91
59055;BME280;44845;51.444;7.460;2022-10-13T10:06:13;99922.84;;;13.68;73.37
59055;BME280;44845;51.444;7.460;2022-10-13T10:11:21;99913.94;;;13.74;72.59
59055;BME280;44845;51.444;7.460;2022-10-13T10:13:49;99920.13;;;13.73;72.80
59055;BME280;44845;51.444;7.460;2022-10-13T10:18:53;99915.69;;;13.75;72.93
59055;BME280;44845;51.444;7.460;2022-10-13T10:21:37;99915.56;;;13.81;72.99
59055;BME280;44845;51.444;7.460;2022-10-13T10:24:25;99912.97;;;13.80;72.98
59055;BME280;44845;51.444;7.460;2022-10-13T10:27:02;99913.78;;;13.83;72.36
59055;BME280;44845;51.444;7.460;2022-10-13T10:29:38;99918.97;;;13.87;73.12
59055;BME280;44845;51.444;7.460;2022-10-13T10:34:57;99909.97;;;13.97;72.94
59055;BME280;44845;51.444;7.460;2022-10-13T10:40:11;99908.13;;;14.02;71.59
59055;BME280;44845;51.444;7.460;2022-10-13T10:45:17;99898.34;;;14.06;71.44
59055;BME280;44845;51.444;7.460;2022-10-13T10:47:47;99899.28;;;14.05;71.17
59055;BME280;44845;51.444;7.460;2022-10-13T10:50:16;99899.22;;;14.06;72.11
59055;BME280;44845;51.444;7.460;2022-10-13T10:53:03;99895.69;;;14.07;72.52
59055;BME280;44845;51.444;7.460;2022-10-13T10:55:46;99888.78;;;14.03;72.12
59055;BME280;44845;51.444;7.460;2022-10-13T10:58:43;99883.41;;;14.06;72.98
59055;BME280;44845;51.444;7.460;2022-10-13T11:01:39;99877.25;;;14.06;72.19
59055;BME280;44845;51.444;7.460;2022-10-13T11:04:26;99880.88;;;14.02;72.32
59055;BME280;44845;51.444;7.460;2022-10-13T11:06:54;99880.00;;;14.01;72.55
59055;BME280;44845;51.444;7.460;2022-10-13T11:17:34;99857.31;;;13.94;72.55
59055;BME280;44845;51.444;7.460;2022-10-13T11:25:38;99845.88;;;13.95;73.26
59055;BME280;44845;51.444;7.460;2022-10-13T11:30:52;99841.56;;;13.91;72.78
59055;BME280;44845;51.444;7.460;2022-10-13T11:39:10;99831.81;;;13.96;72.38
59055;BME280;44845;51.444;7.460;2022-10-13T11:41:54;99836.03;;;14.03;72.22
59055;BME280;44845;51.444;7.460;2022-10-13T11:44:52;99831.50;;;14.08;71.60
59055;BME280;44845;51.444;7.460;2022-10-13T11:53:21;99816.53;;;14.11;71.68
59055;BME280;44845;51.444;7.460;2022-10-13T11:55:53;99814.63;;;14.16;72.18
59055;BME280;44845;51.444;7.460;2022-10-13T11:58:25;99815.44;;;14.19;71.44
59055;BME280;44845;51.444;7.460;2022-10-13T12:01:16;99817.19;;;14.21;71.42
59055;BME280;44845;51.444;7.460;2022-10-13T12:03:44;99817.97;;;14.24;71.79
59055;BME280;44845;51.444;7.460;2022-10-13T12:06:24;99807.31;;;14.29;72.06
59055;BME280;44845;51.444;7.460;2022-10-13T12:08:57;99805.59;;;14.26;71.69
59055;BME280;44845;51.444;7.460;2022-10-13T12:11:31;99808.22;;;14.28;72.63
59055;BME280;44845;51.444;7.460;2022-10-13T12:13:57;99803.88;;;14.25;71.68
59055;BME280;44845;51.444;7.460;2022-10-13T12:16:23;99809.13;;;14.27;71.83
59055;BME280;44845;51.444;7.460;2022-10-13T12:18:49;99816.16;;;14.26;72.34
59055;BME280;44845;51.444;7.460;2022-10-13T12:21:20;99814.44;;;14.25;72.52
59055;BME280;44845;51.444;7.460;2022-10-13T12:23:47;99805.47;;;14.33;73.23
59055;BME280;44845;51.444;7.460;2022-10-13T12:26:16;99798.38;;;14.35;72.02
59055;BME280;44845;51.444;7.460;2022-10-13T12:29:01;99808.69;;;14.44;72.23
59055;BME280;44845;51.444;7.460;2022-10-13T12:31:29;99806.19;;;14.39;73.23
59055;BME280;44845;51.444;7.460;2022-10-13T12:34:02;99807.94;;;14.39;73.08
59055;BME280;44845;51.444;7.460;2022-10-13T12:36:33;99801.84;;;14.37;73.01
59055;BME280;44845;51.444;7.460;2022-10-13T12:39:04;99801.91;;;14.34;72.76
59055;BME280;44845;51.444;7.460;2022-10-13T12:41:34;99801.97;;;14.32;72.37
59055;BME280;44845;51.444;7.460;2022-10-13T12:44:00;99803.66;;;14.35;72.55
59055;BME280;44845;51.444;7.460;2022-10-13T12:46:36;99803.66;;;14.35;72.16
59055;BME280;44845;51.444;7.460;2022-10-13T12:49:15;99801.03;;;14.35;72.57
59055;BME280;44845;51.444;7.460;2022-10-13T12:51:42;99793.97;;;14.35;72.51
59055;BME280;44845;51.444;7.460;2022-10-13T12:54:18;99801.91;;;14.34;72.62
59055;BME280;44845;51.444;7.460;2022-10-13T12:56:43;99798.41;;;14.33;72.50
59055;BME280;44845;51.444;7.460;2022-10-13T12:59:16;99801.13;;;14.30;72.38
59055;BME280;44845;51.444;7.460;2022-10-13T13:01:43;99805.66;;;14.23;72.24
59055;BME280;44845;51.444;7.460;2022-10-13T13:04:17;99803.78;;;14.28;72.73
59055;BME280;44845;51.444;7.460;2022-10-13T13:06:58;99807.41;;;14.24;72.64
59055;BME280;44845;51.444;7.460;2022-10-13T13:14:36;99809.50;;;14.10;73.84
59055;BME280;44845;51.444;7.460;2022-10-13T13:17:23;99820.00;;;14.13;74.05
59055;BME280;44845;51.444;7.460;2022-10-13T13:19:51;99820.06;;;14.10;74.83
59055;BME280;44845;51.444;7.460;2022-10-13T13:22:16;99807.69;;;14.12;75.03
59055;BME280;44845;51.444;7.460;2022-10-13T13:24:42;99810.34;;;14.12;75.39
59055;BME280;44845;51.444;7.460;2022-10-13T13:27:27;99807.69;;;14.12;75.99
59055;BME280;44845;51.444;7.460;2022-10-13T13:29:56;99809.50;;;14.10;76.70
59055;BME280;44845;51.444;7.460;2022-10-13T13:32:23;99819.22;;;14.07;77.03
59055;BME280;44845;51.444;7.460;2022-10-13T13:34:49;99817.53;;;14.05;77.98
59055;BME280;44845;51.444;7.460;2022-10-13T13:37:22;99817.59;;;14.02;78.14
59055;BME280;44845;51.444;7.460;2022-10-13T13:39:48;99815.88;;;14.01;78.76
59055;BME280;44845;51.444;7.460;2022-10-13T13:42:13;99818.53;;;13.99;79.11
59055;BME280;44845;51.444;7.460;2022-10-13T13:44:39;99814.28;;;13.92;79.52
59055;BME280;44845;51.444;7.460;2022-10-13T13:47:13;99818.63;;;13.94;79.75
59055;BME280;44845;51.444;7.460;2022-10-13T13:49:39;99817.81;;;13.92;79.82
59055;BME280;44845;51.444;7.460;2022-10-13T13:52:05;99815.22;;;13.91;80.16
59055;BME280;44845;51.444;7.460;2022-10-13T13:54:30;99810.78;;;13.91;80.15
59055;BME280;44845;51.444;7.460;2022-10-13T13:56:55;99816.06;;;13.91;80.21
59055;BME280;44845;51.444;7.460;2022-10-13T13:59:21;99809.94;;;13.91;80.45
59055;BME280;44845;51.444;7.460;2022-10-13T14:01:46;99810.78;;;13.91;80.68
59055;BME280;44845;51.444;7.460;2022-10-13T14:04:11;99813.41;;;13.93;80.72
59055;BME280;44845;51.444;7.460;2022-10-13T14:06:36;99814.34;;;13.89;81.42
59055;BME280;44845;51.444;7.460;2022-10-13T14:09:03;99810.94;;;13.85;81.50
59055;BME280;44845;51.444;7.460;2022-10-13T14:11:29;99808.16;;;13.91;81.54
59055;BME280;44845;51.444;7.460;2022-10-13T14:13:54;99805.50;;;13.91;81.70
59055;BME280;44845;51.444;7.460;2022-10-13T14:16:22;99806.38;;;13.92;81.46
59055;BME280;44845;51.444;7.460;2022-10-13T14:18:47;99803.75;;;13.93;81.67
59055;BME280;44845;51.444;7.460;2022-10-13T14:21:12;99796.66;;;13.94;81.65
59055;BME280;44845;51.444;7.460;2022-10-13T14:23:38;99797.59;;;13.93;81.47
59055;BME280;44845;51.444;7.460;2022-10-13T14:26:05;99798.47;;;13.93;81.30
59055;BME280;44845;51.444;7.460;2022-10-13T14:28:31;99791.44;;;13.92;81.13
59055;BME280;44845;51.444;7.460;2022-10-13T14:30:57;99795.84;;;13.92;81.38